This is the latest recevied weather packets stored in our database for station/object WA4OPQ-3. If no packets are shown the sender has not sent any weather packets the latest 1 day(s).
| Time | Temp. | Humidity | Pressure | Rain* | Wind** | Luminosity | Snow |
|---|---|---|---|---|---|---|---|
| 1778008076 | 19.44° C | 76% | 1008.6 hPa | 0 mm | 2.24 m/s, 223° | 157 W/m² | - |
| 1778007472 | 20° C | 75% | 1008.8 hPa | 0 mm | 1.34 m/s, 172° | 137 W/m² | - |
| 1778006867 | 20.56° C | 73% | 1008.6 hPa | 0 mm | 0.45 m/s, 208° | 563 W/m² | - |
| 1778006262 | 19.44° C | 76% | 1008.8 hPa | 0 mm | 1.34 m/s, 215° | 220 W/m² | - |
| 1778005656 | 20° C | 74% | 1008.6 hPa | 0 mm | 2.24 m/s, 231° | 283 W/m² | - |
| 1778005053 | 20° C | 74% | 1009 hPa | 0 mm | 1.79 m/s, 167° | 300 W/m² | - |
| 1778004448 | 20° C | 76% | 1009.1 hPa | 0 mm | 0.89 m/s, 219° | 280 W/m² | - |
| 1778003841 | 19.44° C | 79% | 1009.4 hPa | 0 mm | 2.24 m/s, 205° | 274 W/m² | - |
| 1778003236 | 18.89° C | 81% | 1009.6 hPa | 0 mm | 0 m/s | 210 W/m² | - |
| 1778002631 | 18.33° C | 83% | 1010 hPa | 0 mm | 1.34 m/s, 212° | 224 W/m² | - |
| 1778002026 | 17.78° C | 86% | 1010.1 hPa | 0 mm | 0.89 m/s, 189° | 140 W/m² | - |
| 1778001421 | 17.78° C | 85% | 1009.9 hPa | 0 mm | 0.89 m/s, 231° | 103 W/m² | - |
| 1778000817 | 17.78° C | 86% | 1009.8 hPa | 0 mm | 0.45 m/s, 235° | 119 W/m² | - |
| 1778000212 | 17.22° C | 85% | 1010 hPa | 0 mm | 1.34 m/s, 201° | 125 W/m² | - |
| 1777999607 | 17.78° C | 83% | 1010.3 hPa | 0 mm | 0.45 m/s, 233° | 96 W/m² | - |
| 1777999002 | 17.78° C | 85% | 1010.2 hPa | 0 mm | 0 m/s | 93 W/m² | - |
| 1777998396 | 17.22° C | 85% | 1010.9 hPa | 0 mm | 0.89 m/s, 178° | 105 W/m² | - |
| 1777997791 | 17.22° C | 85% | 1011.2 hPa | 0 mm | 0 m/s | 44 W/m² | - |
| 1777997185 | 17.22° C | 82% | 1011.4 hPa | 0 mm | 0.45 m/s, 221° | 90 W/m² | - |
| 1777996582 | 17.22° C | 82% | 1011.3 hPa | 0 mm | 0 m/s | 62 W/m² | - |
| 1777995977 | 17.78° C | 82% | 1011.6 hPa | 0 mm | 0 m/s | 44 W/m² | - |
| 1777995372 | 17.78° C | 78% | 1012.1 hPa | 0 mm | 0 m/s | 68 W/m² | - |
| 1777994773 | 18.33° C | 77% | 1012.1 hPa | 0 mm | 1.34 m/s, 190° | 116 W/m² | - |
| 1777994161 | 18.33° C | 77% | 1012.1 hPa | 0 mm | 1.34 m/s, 180° | 141 W/m² | - |
| 1777993558 | 18.33° C | 79% | 1012 hPa | 0 mm | 0 m/s | 178 W/m² | - |
* Rain latest hour (hover to see other rain measurements)
** Current wind speed in m/s (hover to see current wind gust speed)